Time;durP1;ratioP1;P1;durP2;ratioP2;P2;SDS_P1;SDS_P2;PMS_P1;PMS_P2;Temp;Humidity;BMP_temperature;BMP_pressure;BME280_temperature;BME280_humidity;BME280_pressure;Samples;Min_cycle;Max_cycle;Signal;HPM_P1;HPM_P2
2022/11/18 00:01:21;;;;;;;2.40;1.42;;;11.10;99.90;;;;;;4996099;28;20184;-77
2022/11/18 00:03:47;;;;;;;5.00;1.58;;;11.10;99.90;;;;;;4996230;28;20535;-77
2022/11/18 00:06:18;;;;;;;1.42;1.20;;;11.10;99.90;;;;;;4996511;28;20205;-77
2022/11/18 00:08:44;;;;;;;4.65;1.55;;;11.10;99.90;;;;;;4996347;28;20185;-77
2022/11/18 00:14:17;;;;;;;1.80;1.00;;;11.00;99.90;;;;;;4995587;28;20176;-77
2022/11/18 00:16:42;;;;;;;3.65;0.90;;;10.80;99.90;;;;;;4997224;28;20255;-78
2022/11/18 00:19:07;;;;;;;1.95;1.17;;;10.80;99.90;;;;;;4999166;28;20197;-76
2022/11/18 00:21:33;;;;;;;7.43;1.45;;;10.90;99.90;;;;;;4998325;28;20165;-83
2022/11/18 00:23:58;;;;;;;3.08;1.38;;;11.10;99.90;;;;;;4997968;28;20239;-80
2022/11/18 00:26:24;;;;;;;27.92;1.77;;;11.10;99.90;;;;;;4999695;28;20197;-83
2022/11/18 00:28:49;;;;;;;5.80;1.33;;;11.10;99.90;;;;;;4998898;28;20189;-77
2022/11/18 00:31:15;;;;;;;2.88;1.42;;;11.10;99.90;;;;;;5012566;28;20174;-78
2022/11/18 00:33:41;;;;;;;2.47;1.50;;;11.20;99.90;;;;;;4997748;28;20636;-79
2022/11/18 00:36:09;;;;;;;2.38;1.88;;;11.20;99.90;;;;;;4999431;28;20173;-77
2022/11/18 00:38:35;;;;;;;3.65;1.27;;;11.30;99.90;;;;;;5004058;28;20189;-77
2022/11/18 00:41:06;;;;;;;1.85;1.45;;;11.30;99.90;;;;;;5001517;28;20201;-80
2022/11/18 00:43:32;;;;;;;1.92;1.20;;;11.20;99.90;;;;;;5001375;28;20165;-78
2022/11/18 00:45:57;;;;;;;7.53;1.48;;;11.10;99.90;;;;;;5015018;28;20169;-76
2022/11/18 00:48:24;;;;;;;2.60;1.70;;;11.00;99.90;;;;;;5003550;28;20185;-80
2022/11/18 00:50:56;;;;;;;4.60;1.20;;;11.00;99.90;;;;;;5009934;28;20188;-82
2022/11/18 00:53:24;;;;;;;1.80;1.13;;;11.10;99.90;;;;;;5004868;28;20257;-78
2022/11/18 00:55:50;;;;;;;3.00;0.80;;;11.10;99.90;;;;;;5006462;28;20169;-77
2022/11/18 00:58:17;;;;;;;3.88;1.13;;;11.00;99.90;;;;;;5008785;28;20177;-77
2022/11/18 01:00:44;;;;;;;4.72;1.13;;;10.90;99.90;;;;;;5007789;28;20173;-79
2022/11/18 01:03:11;;;;;;;2.65;1.13;;;10.90;99.90;;;;;;5009625;28;20196;-77
2022/11/18 01:05:38;;;;;;;1.33;0.90;;;11.10;99.90;;;;;;5007494;28;20757;-77
2022/11/18 01:08:05;;;;;;;8.52;1.50;;;11.00;99.90;;;;;;5002997;28;20204;-77
2022/11/18 01:10:31;;;;;;;2.13;0.90;;;10.90;99.90;;;;;;5006702;28;20622;-78
2022/11/18 01:15:43;;;;;;;1.88;0.82;;;11.00;99.90;;;;;;5006754;28;20227;-77
2022/11/18 01:18:09;;;;;;;2.70;1.30;;;11.10;99.90;;;;;;5000276;28;20165;-76
2022/11/18 01:20:35;;;;;;;3.05;1.40;;;11.20;99.90;;;;;;4998826;28;20229;-76
2022/11/18 01:23:00;;;;;;;1.75;1.00;;;11.30;99.90;;;;;;5000677;28;20170;-77
2022/11/18 01:25:27;;;;;;;5.88;1.50;;;11.10;99.90;;;;;;5001311;28;20170;-80
2022/11/18 01:27:53;;;;;;;2.13;0.90;;;11.00;99.90;;;;;;4997527;28;20205;-76
2022/11/18 01:30:19;;;;;;;5.05;1.10;;;11.10;99.90;;;;;;4995824;28;20185;-77
2022/11/18 01:32:45;;;;;;;1.83;1.25;;;11.00;99.90;;;;;;4998987;28;20183;-77
2022/11/18 01:35:11;;;;;;;5.10;1.02;;;11.00;99.90;;;;;;4997386;28;20165;-77
2022/11/18 01:37:37;;;;;;;5.53;1.05;;;10.90;99.90;;;;;;4997186;28;20204;-77
2022/11/18 01:40:05;;;;;;;2.92;1.13;;;10.80;99.90;;;;;;4996640;28;20189;-77
2022/11/18 01:42:30;;;;;;;3.20;1.08;;;10.60;99.90;;;;;;4996839;28;20192;-77
2022/11/18 01:45:08;;;;;;;4.68;1.20;;;10.60;99.90;;;;;;4997945;28;20170;-77
2022/11/18 01:47:57;;;;;;;2.58;1.20;;;10.60;99.90;;;;;;4996716;28;20291;-77
2022/11/18 01:50:23;;;;;;;1.25;1.15;;;10.60;99.90;;;;;;4998366;28;20193;-78
2022/11/18 01:52:51;;;;;;;3.40;1.23;;;10.50;99.90;;;;;;4996718;28;20212;-77
2022/11/18 01:55:22;;;;;;;2.65;1.20;;;10.50;99.90;;;;;;5001105;28;20157;-77
2022/11/18 01:57:49;;;;;;;1.85;1.10;;;10.60;99.90;;;;;;5005886;28;20169;-80
2022/11/18 02:00:16;;;;;;;1.40;1.20;;;10.70;99.90;;;;;;5005894;28;20196;-78
2022/11/18 02:02:41;;;;;;;5.35;1.50;;;10.70;99.90;;;;;;4999930;28;20660;-83
2022/11/18 02:05:09;;;;;;;7.63;1.45;;;10.90;99.90;;;;;;4995016;28;20166;-85
2022/11/18 02:07:40;;;;;;;3.20;1.55;;;10.90;99.90;;;;;;4977018;28;20229;-80
2022/11/18 02:10:08;;;;;;;1.85;0.95;;;10.70;99.90;;;;;;4994856;28;20197;-77
2022/11/18 02:12:35;;;;;;;1.83;1.30;;;10.70;99.90;;;;;;4993599;28;20177;-95
2022/11/18 02:15:02;;;;;;;1.27;1.17;;;10.60;99.90;;;;;;4994809;28;20235;-80
2022/11/18 02:17:42;;;;;;;4.30;1.63;;;10.30;99.90;;;;;;4994595;28;20165;-77
2022/11/18 02:20:07;;;;;;;4.47;1.23;;;10.20;99.90;;;;;;4992941;28;20308;-81
2022/11/18 02:22:53;;;;;;;3.55;1.50;;;10.20;99.90;;;;;;4994407;28;20287;-84
2022/11/18 02:25:57;;;;;;;1.20;1.00;;;10.40;99.90;;;;;;4993574;28;20177;-84
2022/11/18 02:28:43;;;;;;;2.35;1.20;;;10.60;99.90;;;;;;4994994;28;20216;-78
2022/11/18 02:31:13;;;;;;;1.40;1.30;;;10.60;99.90;;;;;;4993331;28;20162;-85
2022/11/18 02:33:50;;;;;;;1.42;1.33;;;10.70;99.90;;;;;;4992173;28;20169;-77
2022/11/18 02:36:38;;;;;;;1.90;1.50;;;10.60;99.90;;;;;;4995703;28;20173;-89
2022/11/18 02:39:22;;;;;;;4.00;1.70;;;10.40;99.90;;;;;;4996865;28;20185;-79
2022/11/18 02:41:50;;;;;;;2.95;1.63;;;10.40;99.90;;;;;;4997107;28;20263;-76
2022/11/18 02:44:18;;;;;;;1.98;1.20;;;10.40;99.90;;;;;;4995538;28;20173;-77
2022/11/18 02:46:48;;;;;;;2.45;1.23;;;10.40;99.90;;;;;;4996587;28;20247;-78
2022/11/18 02:49:35;;;;;;;6.32;1.73;;;10.20;99.90;;;;;;4996012;28;20185;-77
2022/11/18 02:52:03;;;;;;;2.22;1.42;;;10.10;99.90;;;;;;4996900;28;20176;-76
2022/11/18 02:54:29;;;;;;;2.83;1.48;;;10.10;99.90;;;;;;4997587;28;20256;-77
2022/11/18 02:56:56;;;;;;;3.95;1.48;;;10.10;99.90;;;;;;4998301;28;20173;-77
2022/11/18 02:59:21;;;;;;;7.05;1.80;;;10.10;99.90;;;;;;5001968;28;20185;-77
2022/11/18 03:01:47;;;;;;;2.05;1.75;;;10.00;99.90;;;;;;5018240;28;20152;-78
2022/11/18 03:04:14;;;;;;;3.83;1.60;;;9.90;99.90;;;;;;4998909;28;20264;-81
2022/11/18 03:06:59;;;;;;;1.42;1.33;;;10.00;99.90;;;;;;4996350;28;20204;-88
2022/11/18 03:09:36;;;;;;;3.47;1.83;;;10.00;99.90;;;;;;4996413;28;20209;-81
2022/11/18 03:12:10;;;;;;;5.03;2.15;;;9.90;99.90;;;;;;5012162;28;20534;-77
2022/11/18 03:14:43;;;;;;;11.30;2.03;;;10.00;99.90;;;;;;4994027;28;20256;-79
2022/11/18 03:17:20;;;;;;;4.65;1.70;;;10.00;99.90;;;;;;4993591;28;20169;-77
2022/11/18 03:20:06;;;;;;;1.40;1.30;;;10.00;99.90;;;;;;4993307;28;20611;-80
2022/11/18 03:22:46;;;;;;;4.45;1.60;;;10.00;99.90;;;;;;4993744;28;20292;-82
2022/11/18 03:25:27;;;;;;;7.40;1.95;;;10.10;99.90;;;;;;4993632;28;20324;-76
2022/11/18 03:28:06;;;;;;;6.20;2.05;;;10.20;99.90;;;;;;4993441;28;20215;-82
2022/11/18 03:30:36;;;;;;;4.32;1.67;;;10.10;99.90;;;;;;4993493;28;20634;-76
2022/11/18 03:33:08;;;;;;;1.90;1.40;;;10.00;99.90;;;;;;4995718;28;20537;-77
2022/11/18 03:35:38;;;;;;;4.70;1.77;;;10.00;99.90;;;;;;4995450;28;20196;-84
2022/11/18 03:38:09;;;;;;;7.15;2.13;;;10.00;99.90;;;;;;4996598;28;20691;-81
2022/11/18 03:40:37;;;;;;;1.60;1.50;;;9.90;99.90;;;;;;4996397;28;20236;-79
2022/11/18 03:43:08;;;;;;;3.85;1.85;;;9.90;99.90;;;;;;4996735;28;20251;-77
2022/11/18 03:45:35;;;;;;;2.65;1.60;;;9.90;99.90;;;;;;4996678;28;20764;-81
2022/11/18 03:48:17;;;;;;;3.47;2.22;;;9.80;99.90;;;;;;4996533;28;20211;-84
2022/11/18 03:50:50;;;;;;;4.25;2.00;;;9.70;99.90;;;;;;4996155;28;20276;-79
2022/11/18 03:53:17;;;;;;;1.73;1.30;;;9.80;99.90;;;;;;4996557;28;20184;-83
2022/11/18 03:55:53;;;;;;;10.65;2.13;;;9.90;99.90;;;;;;4996852;28;20161;-84
2022/11/18 03:58:23;;;;;;;4.50;1.40;;;9.90;99.90;;;;;;5011834;28;20185;-80
2022/11/18 04:00:53;;;;;;;8.50;1.90;;;9.90;99.90;;;;;;4996597;28;20165;-82
2022/11/18 04:03:18;;;;;;;7.75;2.15;;;9.90;99.90;;;;;;4996474;28;20204;-80
2022/11/18 04:05:45;;;;;;;1.33;1.23;;;9.90;99.90;;;;;;4995107;28;20169;-83
2022/11/18 04:08:23;;;;;;;8.20;1.58;;;9.90;99.90;;;;;;4996382;28;20197;-87
2022/11/18 04:11:00;;;;;;;3.85;1.80;;;9.80;99.90;;;;;;4996603;28;20176;-80
2022/11/18 04:13:30;;;;;;;2.80;1.88;;;9.80;99.90;;;;;;4996508;28;20536;-95
2022/11/18 04:15:56;;;;;;;5.47;1.70;;;9.70;99.90;;;;;;4997904;28;20173;-88
2022/11/18 04:18:22;;;;;;;8.27;1.30;;;9.70;99.90;;;;;;4997546;28;20658;-83
2022/11/18 04:20:47;;;;;;;4.50;1.88;;;9.70;99.90;;;;;;4997781;28;20196;-90
2022/11/18 04:23:13;;;;;;;3.25;1.70;;;9.80;99.90;;;;;;4997238;28;20169;-85
2022/11/18 04:25:38;;;;;;;6.40;1.55;;;9.80;99.90;;;;;;4997702;28;20169;-90
2022/11/18 04:28:04;;;;;;;6.60;1.60;;;9.80;99.90;;;;;;4997475;28;20213;-86
2022/11/18 04:30:31;;;;;;;2.28;1.67;;;9.40;99.90;;;;;;4996683;28;20173;-81
2022/11/18 04:32:56;;;;;;;2.85;1.45;;;9.40;99.90;;;;;;4997070;28;20174;-80
2022/11/18 04:35:22;;;;;;;5.22;1.45;;;9.50;99.90;;;;;;4996028;28;20170;-78
2022/11/18 04:37:48;;;;;;;3.33;1.70;;;9.50;99.90;;;;;;4996597;28;20223;-78
2022/11/18 04:40:14;;;;;;;3.70;1.30;;;9.50;99.90;;;;;;4995988;28;20189;-78
2022/11/18 04:42:39;;;;;;;5.28;1.35;;;9.40;99.90;;;;;;4996003;28;20236;-85
2022/11/18 04:45:06;;;;;;;5.70;1.73;;;9.40;99.90;;;;;;4996482;28;20626;-87
2022/11/18 04:47:31;;;;;;;5.97;1.60;;;9.30;99.90;;;;;;4997799;28;20219;-78
2022/11/18 04:49:57;;;;;;;2.20;1.60;;;9.30;99.90;;;;;;4998822;28;20185;-77
2022/11/18 04:52:22;;;;;;;4.47;1.48;;;9.50;99.90;;;;;;4997732;28;20173;-77
2022/11/18 04:54:48;;;;;;;4.28;1.75;;;9.50;99.90;;;;;;4997057;28;20219;-79
2022/11/18 04:57:13;;;;;;;5.40;1.50;;;9.50;99.90;;;;;;4998039;28;20239;-77
2022/11/18 04:59:39;;;;;;;3.47;1.52;;;9.30;99.90;;;;;;4999927;28;20201;-77
2022/11/18 05:02:05;;;;;;;8.55;1.83;;;9.30;99.90;;;;;;5000709;28;20189;-77
2022/11/18 05:04:33;;;;;;;6.28;1.65;;;9.40;99.90;;;;;;5014651;28;20712;-77
2022/11/18 05:07:00;;;;;;;7.00;2.13;;;9.40;99.90;;;;;;4998995;28;20336;-76
2022/11/18 05:09:26;;;;;;;3.30;1.50;;;9.40;99.90;;;;;;5001503;28;20219;-76
2022/11/18 05:14:36;;;;;;;6.97;1.63;;;9.30;99.90;;;;;;5006213;28;20192;-77
2022/11/18 05:17:04;;;;;;;1.92;1.63;;;9.40;99.90;;;;;;5004888;28;20173;-76
2022/11/18 05:19:30;;;;;;;3.25;1.50;;;9.50;99.90;;;;;;5007752;28;20235;-80
2022/11/18 05:21:56;;;;;;;3.58;1.88;;;9.20;99.90;;;;;;5009374;28;20153;-77
2022/11/18 05:24:24;;;;;;;8.23;1.55;;;9.20;99.90;;;;;;5007168;28;20534;-78
2022/11/18 05:26:51;;;;;;;6.05;2.20;;;9.20;99.90;;;;;;5005199;28;20194;-77
2022/11/18 05:29:18;;;;;;;4.30;1.52;;;9.30;99.90;;;;;;4997580;28;20196;-95
2022/11/18 05:31:44;;;;;;;11.88;1.63;;;9.20;99.90;;;;;;5005037;28;20177;-76
2022/11/18 05:34:11;;;;;;;3.88;1.45;;;9.30;99.90;;;;;;5003235;28;20173;-78
2022/11/18 05:36:37;;;;;;;7.20;1.75;;;9.30;99.90;;;;;;5002718;28;20165;-77
2022/11/18 05:39:03;;;;;;;4.53;1.77;;;9.30;99.90;;;;;;5003637;28;20728;-78
2022/11/18 05:44:13;;;;;;;10.63;1.73;;;9.30;99.90;;;;;;5003186;28;20176;-79
2022/11/18 05:46:39;;;;;;;5.93;1.90;;;9.20;99.90;;;;;;5004129;28;20197;-80
2022/11/18 05:49:06;;;;;;;7.53;1.58;;;9.10;99.90;;;;;;5003992;28;20251;-77
2022/11/18 05:51:31;;;;;;;2.50;1.65;;;9.10;99.90;;;;;;5003211;28;20678;-76
2022/11/18 05:53:57;;;;;;;9.85;2.70;;;9.20;99.90;;;;;;5004484;28;20216;-77
2022/11/18 05:56:28;;;;;;;2.17;1.48;;;9.20;99.90;;;;;;5003126;28;20168;-77
2022/11/18 05:58:54;;;;;;;4.90;1.65;;;9.10;99.90;;;;;;5000121;28;20197;-76
2022/11/18 06:01:28;;;;;;;5.93;2.05;;;9.10;99.90;;;;;;5000035;28;20184;-79
2022/11/18 06:03:55;;;;;;;4.72;1.75;;;9.10;99.90;;;;;;4998014;28;20689;-82
2022/11/18 06:06:22;;;;;;;12.95;1.77;;;9.10;99.90;;;;;;4999453;28;20256;-77
2022/11/18 06:09:09;;;;;;;3.60;1.95;;;9.00;99.90;;;;;;4998727;28;20189;-77
2022/11/18 06:11:43;;;;;;;6.43;1.98;;;9.10;99.90;;;;;;4996739;28;20664;-80
2022/11/18 06:14:35;;;;;;;14.60;2.30;;;9.10;99.90;;;;;;5002605;28;20169;-78
2022/11/18 06:17:04;;;;;;;12.93;2.35;;;9.10;99.90;;;;;;4993901;28;20182;-85
2022/11/18 06:19:31;;;;;;;6.70;2.70;;;9.10;99.90;;;;;;4997516;28;20181;-91
2022/11/18 06:21:58;;;;;;;9.52;2.08;;;9.20;99.90;;;;;;4997544;28;20173;-87
2022/11/18 06:24:23;;;;;;;7.18;2.13;;;9.10;99.90;;;;;;4995586;28;20177;-87
2022/11/18 06:26:49;;;;;;;10.50;2.20;;;9.10;99.90;;;;;;4993754;28;20259;-77
2022/11/18 06:29:17;;;;;;;3.60;1.85;;;9.10;99.90;;;;;;5009363;28;20189;-80
2022/11/18 06:31:43;;;;;;;7.88;2.30;;;9.10;99.90;;;;;;4994952;28;20280;-84
2022/11/18 06:34:09;;;;;;;4.80;2.10;;;9.10;99.90;;;;;;4993919;28;20247;-77
2022/11/18 06:36:34;;;;;;;4.78;1.70;;;9.20;99.90;;;;;;4992817;28;20173;-77
2022/11/18 06:39:04;;;;;;;7.82;2.95;;;9.20;99.90;;;;;;4991939;28;20224;-93
2022/11/18 06:41:30;;;;;;;6.22;2.15;;;9.00;99.90;;;;;;5008679;28;20271;-76
2022/11/18 06:43:56;;;;;;;6.32;2.03;;;8.90;99.90;;;;;;4993905;28;20231;-76
2022/11/18 06:49:05;;;;;;;9.18;1.73;;;9.00;99.90;;;;;;4994103;28;20266;-77
2022/11/18 06:51:31;;;;;;;5.75;2.00;;;9.00;99.90;;;;;;4993063;28;20162;-77
2022/11/18 06:53:57;;;;;;;5.85;1.92;;;9.10;99.90;;;;;;4993510;28;20273;-76
2022/11/18 06:56:22;;;;;;;5.90;1.90;;;9.00;99.90;;;;;;4991963;28;20268;-77
2022/11/18 06:58:53;;;;;;;3.33;2.05;;;9.00;99.90;;;;;;4992767;28;20200;-76
2022/11/18 07:01:21;;;;;;;9.82;2.28;;;9.00;99.90;;;;;;5008441;28;20188;-80
2022/11/18 07:03:47;;;;;;;7.50;1.80;;;9.10;99.90;;;;;;4992740;28;20165;-76
2022/11/18 07:06:16;;;;;;;4.55;2.30;;;9.10;99.90;;;;;;4994185;28;20168;-76
2022/11/18 07:08:42;;;;;;;5.35;2.08;;;9.10;99.90;;;;;;4997960;28;20193;-78
2022/11/18 07:11:11;;;;;;;7.57;2.70;;;9.20;99.90;;;;;;4996319;28;20534;-78
2022/11/18 07:13:37;;;;;;;5.55;1.88;;;9.30;99.90;;;;;;4997589;28;20181;-76
2022/11/18 07:16:09;;;;;;;3.35;1.90;;;9.40;99.90;;;;;;4996644;28;20177;-76
2022/11/18 07:18:37;;;;;;;20.80;2.60;;;9.50;99.90;;;;;;4996572;28;20204;-77
2022/11/18 07:21:08;;;;;;;8.05;2.50;;;9.60;99.90;;;;;;4997540;28;20165;-83
2022/11/18 07:23:34;;;;;;;7.32;2.03;;;9.70;99.90;;;;;;4998974;28;20177;-80
2022/11/18 07:26:00;;;;;;;5.38;2.15;;;9.80;99.90;;;;;;4998484;28;20180;-80
2022/11/18 07:28:28;;;;;;;7.30;1.90;;;9.80;99.90;;;;;;5003669;28;20716;-80
2022/11/18 07:31:01;;;;;;;7.60;1.90;;;9.80;99.90;;;;;;4997356;28;20165;-79
2022/11/18 07:33:26;;;;;;;3.17;1.90;;;9.90;99.90;;;;;;5011019;28;20177;-79
2022/11/18 07:35:52;;;;;;;7.65;2.30;;;9.90;99.90;;;;;;4996173;28;20176;-79
2022/11/18 07:38:17;;;;;;;8.80;1.77;;;9.80;99.90;;;;;;4995657;28;20641;-77
2022/11/18 07:40:43;;;;;;;8.10;2.13;;;9.90;99.90;;;;;;4995422;28;20257;-79
2022/11/18 07:43:08;;;;;;;5.25;1.63;;;9.90;99.90;;;;;;4995968;28;20184;-81
2022/11/18 07:45:34;;;;;;;2.65;1.80;;;10.00;99.90;;;;;;4995984;28;20173;-77
2022/11/18 07:48:00;;;;;;;4.70;2.13;;;10.00;99.90;;;;;;4995541;28;20217;-77
2022/11/18 07:50:25;;;;;;;6.10;1.70;;;10.20;99.90;;;;;;4996063;28;20208;-81
2022/11/18 07:52:54;;;;;;;2.40;1.70;;;10.30;99.90;;;;;;4996116;28;20173;-77
2022/11/18 07:55:20;;;;;;;5.18;1.80;;;10.20;99.90;;;;;;4995973;28;20665;-78
2022/11/18 07:57:45;;;;;;;8.02;1.75;;;10.10;99.90;;;;;;4995467;28;20181;-77
2022/11/18 08:00:12;;;;;;;7.85;2.13;;;10.10;99.90;;;;;;4996114;28;20185;-77
2022/11/18 08:02:38;;;;;;;6.25;2.38;;;10.30;99.90;;;;;;4995672;28;20585;-79
2022/11/18 08:05:04;;;;;;;4.88;1.60;;;10.20;99.90;;;;;;5011332;28;20260;-78
2022/11/18 08:07:29;;;;;;;3.63;1.40;;;10.10;99.90;;;;;;4995520;28;20231;-77
2022/11/18 08:09:55;;;;;;;6.03;2.13;;;10.00;99.90;;;;;;4993852;28;20263;-77
2022/11/18 08:12:20;;;;;;;5.50;3.45;;;10.00;99.90;;;;;;4989088;28;20191;-80
2022/11/18 08:14:46;;;;;;;9.23;3.72;;;10.10;99.90;;;;;;4975830;28;20248;-77
2022/11/18 08:17:11;;;;;;;9.60;5.30;;;10.00;99.90;;;;;;4975743;28;20177;-77
2022/11/18 08:19:37;;;;;;;8.27;5.38;;;10.20;99.90;;;;;;4975699;28;20193;-77
2022/11/18 08:22:02;;;;;;;11.82;6.72;;;10.10;99.90;;;;;;4976414;28;20177;-93
2022/11/18 08:24:28;;;;;;;9.52;5.40;;;10.10;99.90;;;;;;4975905;28;20554;-78
2022/11/18 08:26:54;;;;;;;8.23;2.95;;;10.20;99.90;;;;;;4975400;28;20259;-80
2022/11/18 08:29:19;;;;;;;6.47;2.03;;;10.20;99.90;;;;;;4975755;28;20186;-80
2022/11/18 08:31:45;;;;;;;3.85;1.90;;;10.20;99.90;;;;;;4975459;28;20170;-88
2022/11/18 08:34:11;;;;;;;4.00;2.17;;;10.20;99.90;;;;;;4975447;28;20193;-82
2022/11/18 08:36:37;;;;;;;3.13;1.85;;;10.30;99.90;;;;;;4981931;28;20185;-80
2022/11/18 08:39:07;;;;;;;6.43;2.78;;;10.40;99.90;;;;;;5008178;28;20193;-80
2022/11/18 08:41:38;;;;;;;4.40;2.40;;;10.60;99.90;;;;;;4997441;28;20685;-79
2022/11/18 08:44:05;;;;;;;11.10;2.40;;;10.70;99.90;;;;;;4995409;28;20173;-80
2022/11/18 08:46:31;;;;;;;8.18;2.17;;;10.70;99.90;;;;;;4996928;28;20646;-80
2022/11/18 08:48:57;;;;;;;9.70;2.30;;;10.70;99.90;;;;;;5011942;28;20268;-79
2022/11/18 08:51:23;;;;;;;8.93;2.20;;;10.70;99.90;;;;;;4994879;28;20175;-76
2022/11/18 08:53:49;;;;;;;4.03;1.95;;;10.70;99.90;;;;;;4994253;28;20688;-78
2022/11/18 08:56:19;;;;;;;4.03;2.10;;;10.80;99.90;;;;;;4997468;28;20236;-78
2022/11/18 08:58:45;;;;;;;4.90;1.90;;;10.80;99.90;;;;;;5014509;28;20193;-78
2022/11/18 09:01:12;;;;;;;6.82;2.38;;;10.70;99.90;;;;;;5015612;28;20164;-77
2022/11/18 09:03:38;;;;;;;7.18;2.03;;;10.80;99.90;;;;;;5014811;28;20172;-79
2022/11/18 09:06:07;;;;;;;5.32;2.00;;;10.80;99.90;;;;;;5016733;28;20191;-78
2022/11/18 09:08:33;;;;;;;9.52;2.63;;;10.90;99.90;;;;;;5016712;28;20242;-83
2022/11/18 09:11:03;;;;;;;3.17;2.40;;;11.00;99.90;;;;;;5017240;28;20542;-79
2022/11/18 09:13:29;;;;;;;3.55;2.55;;;11.00;99.90;;;;;;5016887;28;20216;-78
2022/11/18 09:15:57;;;;;;;8.40;2.50;;;11.00;99.90;;;;;;5015750;28;20181;-86
2022/11/18 09:18:29;;;;;;;2.88;1.98;;;11.10;99.90;;;;;;4998302;28;20638;-78
2022/11/18 09:21:05;;;;;;;4.60;2.75;;;11.10;99.90;;;;;;4999039;28;20184;-79
2022/11/18 09:23:33;;;;;;;10.68;2.20;;;11.20;99.90;;;;;;4996864;28;20253;-78
2022/11/18 09:26:03;;;;;;;3.65;1.90;;;11.10;99.90;;;;;;4996497;28;20177;-79
2022/11/18 09:28:29;;;;;;;7.25;2.10;;;11.10;99.90;;;;;;4996229;28;20209;-79
2022/11/18 09:30:56;;;;;;;5.55;2.53;;;11.20;99.90;;;;;;4997581;28;20173;-79
2022/11/18 09:33:23;;;;;;;9.10;2.97;;;11.00;99.90;;;;;;4994839;28;20181;-79
2022/11/18 09:35:48;;;;;;;6.65;2.20;;;11.00;99.90;;;;;;4998136;28;20638;-80
2022/11/18 09:38:14;;;;;;;11.15;2.25;;;11.00;99.90;;;;;;4996444;28;20169;-84
2022/11/18 09:40:55;;;;;;;10.20;2.10;;;11.10;99.90;;;;;;4994602;28;20245;-78
2022/11/18 09:43:27;;;;;;;5.78;2.17;;;11.20;99.90;;;;;;4995980;28;20652;-82
2022/11/18 09:46:02;;;;;;;10.05;3.72;;;11.10;99.90;;;;;;4995705;28;20177;-81
2022/11/18 09:51:12;;;;;;;3.17;1.85;;;11.40;99.90;;;;;;4995332;28;20539;-79
2022/11/18 09:53:42;;;;;;;4.10;1.75;;;11.50;99.90;;;;;;4995576;28;20197;-79
2022/11/18 09:56:14;;;;;;;5.72;1.85;;;11.30;99.90;;;;;;4996475;28;20518;-79
2022/11/18 09:58:41;;;;;;;5.10;1.75;;;11.40;99.90;;;;;;5015505;28;20203;-79
2022/11/18 10:01:18;;;;;;;4.97;1.75;;;11.40;99.90;;;;;;5014830;28;20474;-79
2022/11/18 10:03:44;;;;;;;3.45;2.13;;;11.40;99.90;;;;;;5014050;28;20165;-79
2022/11/18 10:06:23;;;;;;;6.30;2.15;;;11.60;99.90;;;;;;5014501;28;20179;-80
2022/11/18 10:08:51;;;;;;;3.22;1.33;;;11.60;99.90;;;;;;4973813;28;20568;-81
2022/11/18 10:11:20;;;;;;;4.88;1.88;;;11.70;99.90;;;;;;4988516;28;20173;-79
2022/11/18 10:14:10;;;;;;;10.23;1.73;;;11.90;99.90;;;;;;4993949;28;20200;-79
2022/11/18 10:16:57;;;;;;;5.35;1.63;;;11.80;99.90;;;;;;4992573;28;20208;-79
2022/11/18 10:19:41;;;;;;;2.78;1.40;;;11.90;99.90;;;;;;4995209;28;20193;-84
2022/11/18 10:22:26;;;;;;;3.53;1.20;;;12.00;99.90;;;;;;4993820;28;20231;-80
2022/11/18 10:24:56;;;;;;;8.70;1.40;;;12.10;99.90;;;;;;4995731;28;20209;-79
2022/11/18 10:27:25;;;;;;;4.28;1.95;;;12.10;99.90;;;;;;4992498;28;20690;-78
2022/11/18 10:29:54;;;;;;;4.50;2.00;;;12.20;99.90;;;;;;4993447;28;20187;-78
2022/11/18 10:32:20;;;;;;;8.68;1.98;;;11.90;99.90;;;;;;4994852;28;20173;-78
2022/11/18 10:34:57;;;;;;;3.13;1.50;;;12.00;99.90;;;;;;4995336;28;20224;-77
2022/11/18 10:37:24;;;;;;;7.07;2.95;;;12.00;99.90;;;;;;4992887;28;20260;-78
2022/11/18 10:39:52;;;;;;;6.40;1.48;;;12.00;99.90;;;;;;4995027;28;20239;-78
2022/11/18 10:42:25;;;;;;;3.22;1.67;;;12.10;99.90;;;;;;4996196;28;20199;-78
2022/11/18 10:44:51;;;;;;;3.30;1.15;;;12.10;99.90;;;;;;4996479;28;20232;-78
2022/11/18 10:47:29;;;;;;;5.78;1.52;;;12.00;99.90;;;;;;4997310;28;20208;-78
2022/11/18 10:50:00;;;;;;;2.22;1.50;;;12.10;99.90;;;;;;4995635;28;20173;-78
2022/11/18 10:52:28;;;;;;;4.80;1.65;;;12.20;99.90;;;;;;4996396;28;20181;-77
2022/11/18 10:55:12;;;;;;;4.25;1.35;;;12.10;99.90;;;;;;4996606;28;20215;-77
2022/11/18 10:57:44;;;;;;;5.68;1.27;;;12.20;99.90;;;;;;4996979;28;20185;-77
2022/11/18 11:00:43;;;;;;;3.42;1.33;;;12.20;99.90;;;;;;5012292;28;20193;-77
2022/11/18 11:03:21;;;;;;;7.50;1.38;;;12.20;99.90;;;;;;4997242;28;20189;-77
2022/11/18 11:05:47;;;;;;;3.70;1.80;;;12.30;99.90;;;;;;4996494;28;20216;-80
2022/11/18 11:08:21;;;;;;;2.40;1.25;;;12.20;99.90;;;;;;4997683;28;20268;-77
2022/11/18 11:10:58;;;;;;;4.43;1.55;;;12.20;99.90;;;;;;5005306;28;20248;-79
2022/11/18 11:13:28;;;;;;;4.45;1.60;;;12.20;99.90;;;;;;4996963;28;20176;-78
2022/11/18 11:15:58;;;;;;;3.20;1.45;;;12.10;99.90;;;;;;4996578;28;20173;-78
2022/11/18 11:18:43;;;;;;;1.48;1.35;;;12.00;99.90;;;;;;4996806;28;20185;-78
2022/11/18 11:21:19;;;;;;;5.47;1.67;;;12.20;99.90;;;;;;4996927;28;20224;-78
2022/11/18 11:23:45;;;;;;;4.85;2.72;;;12.40;99.90;;;;;;4996950;28;20177;-79
2022/11/18 11:26:37;;;;;;;11.82;5.20;;;12.50;99.90;;;;;;4997891;28;20204;-78
2022/11/18 11:29:41;;;;;;;8.63;3.47;;;12.60;99.90;;;;;;4996392;28;20212;-77
2022/11/18 11:32:16;;;;;;;5.15;2.22;;;12.60;99.90;;;;;;4996457;28;20176;-77
2022/11/18 11:34:52;;;;;;;9.70;1.42;;;12.50;99.90;;;;;;4995960;28;20168;-78
2022/11/18 11:37:49;;;;;;;4.32;0.93;;;12.40;99.90;;;;;;4995910;28;20169;-78
2022/11/18 11:40:35;;;;;;;5.70;1.75;;;12.40;99.90;;;;;;4995290;28;20196;-78
2022/11/18 11:43:20;;;;;;;2.58;1.40;;;12.60;99.90;;;;;;4995923;28;20641;-77
2022/11/18 11:46:01;;;;;;;3.20;1.50;;;12.50;99.90;;;;;;4995706;28;20178;-77
2022/11/18 11:48:50;;;;;;;6.38;1.63;;;12.70;99.90;;;;;;4995815;28;20588;-78
2022/11/18 11:51:46;;;;;;;9.35;1.73;;;13.00;99.90;;;;;;5027630;23;20224;-86
2022/11/18 11:54:20;;;;;;;9.75;2.10;;;12.90;99.90;;;;;;5013566;28;20207;-87
2022/11/18 11:56:54;;;;;;;2.90;1.33;;;12.70;99.90;;;;;;5016556;28;20172;-85
2022/11/18 11:59:44;;;;;;;3.50;1.52;;;12.60;99.90;;;;;;5014796;28;20624;-78
2022/11/18 12:02:41;;;;;;;2.80;1.83;;;12.50;99.90;;;;;;5014993;28;20252;-79
2022/11/18 12:05:09;;;;;;;2.22;1.33;;;12.50;99.90;;;;;;5014808;28;20177;-78
2022/11/18 12:07:44;;;;;;;2.55;1.60;;;12.30;99.90;;;;;;5015103;28;20200;-79
2022/11/18 12:10:19;;;;;;;4.95;2.58;;;12.30;99.90;;;;;;5014846;28;20180;-80
2022/11/18 12:13:21;;;;;;;6.40;3.05;;;12.50;99.90;;;;;;5014491;28;20164;-82
2022/11/18 12:16:14;;;;;;;5.97;2.47;;;12.60;99.90;;;;;;5014965;28;20198;-80
2022/11/18 12:18:46;;;;;;;5.90;2.53;;;12.60;99.90;;;;;;5014137;28;20576;-79
2022/11/18 12:21:43;;;;;;;2.78;1.80;;;12.70;99.90;;;;;;5013180;28;20184;-79
2022/11/18 12:24:31;;;;;;;2.92;1.83;;;12.70;99.90;;;;;;5014617;28;20181;-80
2022/11/18 12:27:05;;;;;;;1.10;1.00;;;12.70;99.90;;;;;;5014571;28;20196;-81
2022/11/18 12:29:48;;;;;;;5.38;1.20;;;12.60;99.90;;;;;;5014782;28;20200;-85
2022/11/18 12:32:27;;;;;;;6.28;1.83;;;12.60;99.90;;;;;;5014653;28;20223;-83
2022/11/18 12:35:20;;;;;;;3.33;1.60;;;12.60;99.90;;;;;;5015432;28;20176;-80
2022/11/18 12:37:52;;;;;;;3.35;1.30;;;12.60;99.90;;;;;;5008359;28;20179;-80
2022/11/18 12:40:34;;;;;;;2.05;1.45;;;12.70;99.90;;;;;;5013945;28;20209;-80
2022/11/18 12:45:50;;;;;;;7.10;1.65;;;12.70;99.90;;;;;;5014766;28;20199;-80
2022/11/18 12:48:37;;;;;;;3.20;1.50;;;12.70;99.90;;;;;;5013933;28;20575;-82
2022/11/18 12:51:14;;;;;;;1.88;1.30;;;12.60;99.90;;;;;;5013998;28;20238;-80
2022/11/18 12:53:45;;;;;;;5.05;1.83;;;12.60;99.90;;;;;;5014204;28;20175;-81
2022/11/18 12:56:23;;;;;;;6.70;2.40;;;12.60;99.90;;;;;;5013397;28;20185;-82
2022/11/18 12:58:54;;;;;;;3.25;1.73;;;12.60;99.90;;;;;;4996125;28;20618;-83
2022/11/18 13:01:22;;;;;;;6.20;1.63;;;12.70;99.90;;;;;;5015566;28;20176;-84
2022/11/18 13:03:48;;;;;;;12.50;2.20;;;12.90;99.90;;;;;;5013077;28;20255;-86
2022/11/18 13:06:27;;;;;;;4.90;1.48;;;12.90;99.90;;;;;;4997540;28;20208;-87
2022/11/18 13:08:59;;;;;;;6.75;1.92;;;13.00;99.90;;;;;;4997850;28;20304;-87
2022/11/18 13:11:45;;;;;;;7.25;1.75;;;12.80;99.90;;;;;;5015039;28;20191;-87
2022/11/18 13:17:51;;;;;;;4.45;1.80;;;13.00;99.90;;;;;;5015499;28;20180;-87
2022/11/18 13:20:28;;;;;;;4.82;1.48;;;13.10;99.90;;;;;;4954420;28;20349;-86
2022/11/18 13:25:45;;;;;;;7.32;1.95;;;13.00;99.90;;;;;;5015190;28;20176;-86
2022/11/18 13:28:30;;;;;;;7.15;2.67;;;13.00;99.90;;;;;;4969809;28;20221;-86
2022/11/18 13:31:14;;;;;;;5.22;1.65;;;13.30;99.90;;;;;;4995068;28;20244;-87
2022/11/18 13:33:39;;;;;;;2.05;1.27;;;13.40;99.90;;;;;;4983735;28;20232;-86
2022/11/18 13:36:41;;;;;;;9.52;2.08;;;13.50;99.90;;;;;;4975205;28;20173;-87